Etusivu
METAR-TAF:

METAR-TAF

Lentoasemat :

Nörvenich, Saksa

Leveyspiiri: 50-50N, Pituuspiiri: 006-40E, korkeus merenpinnasta: 118 m

Tämänhetkinen sää

Tämä raportti tehtiin 52 minuuttia sitten, kello 17.20 UTC
Tuuli 7 kn lännestä
Lämpötila 12°C
Kosteus 67%
Ilmanpaine 1000 hPa
Näkyvyys 10 km tai enemmän
Muutamia pilviä 12000 ft:n korkeudessa
Hajonneita pilviä 25000 ft:n korkeudessa

METAR: ETNN 031720Z 27007KT 9999 FEW120 BKN250 12/06 Q1000 BLU+

Aika: 19:12 (18:12 UTC)


TAF: puuttuu

Säähavainnot ja -ennusteet yli 4000 lentoasemalta (METAR- ja TAF-raportit).

Käytössä olevat sääasemat on merkitty karttaan keltaisilla ja punaisilla pisteillä.

Aseta hiiri pisteen päälle nähdäksesi sääaseman nimen.

Klikkaa sitten nähdäksesi säähavainnot ja -ennusteet.

Kartan vaihtaminen: klikkaa mustalla rastilla varustettuja vihreitä pisteitä, niin voit zoomata sisään; viivalla varustettua vihreää pistettä, niin voit zoomata ulos tai vihreitä nuolia, niin pääset viereisille kartoille.


METAR-TAF: